sensor_id;sensor_type;location;lat;lon;timestamp;temperature;humidity
3792;DHT22;1911;53.768;11.474;2023-06-10T00:02:03;12.20;99.90
3792;DHT22;1911;53.768;11.474;2023-06-10T00:04:29;12.20;99.90
3792;DHT22;1911;53.768;11.474;2023-06-10T00:06:54;12.10;99.90
3792;DHT22;1911;53.768;11.474;2023-06-10T00:09:20;12.10;99.90
3792;DHT22;1911;53.768;11.474;2023-06-10T00:11:47;12.10;99.90
3792;DHT22;1911;53.768;11.474;2023-06-10T00:14:12;12.00;99.90
3792;DHT22;1911;53.768;11.474;2023-06-10T00:16:38;12.00;99.90
3792;DHT22;1911;53.768;11.474;2023-06-10T00:19:04;12.00;99.90
3792;DHT22;1911;53.768;11.474;2023-06-10T00:21:31;12.00;99.90
3792;DHT22;1911;53.768;11.474;2023-06-10T00:24:07;12.00;99.90
3792;DHT22;1911;53.768;11.474;2023-06-10T00:26:40;11.90;99.90
3792;DHT22;1911;53.768;11.474;2023-06-10T00:29:06;11.90;99.90
3792;DHT22;1911;53.768;11.474;2023-06-10T00:31:33;11.90;99.90
3792;DHT22;1911;53.768;11.474;2023-06-10T00:33:59;11.90;99.90
3792;DHT22;1911;53.768;11.474;2023-06-10T00:36:24;11.90;99.90
3792;DHT22;1911;53.768;11.474;2023-06-10T00:38:50;11.90;99.90
3792;DHT22;1911;53.768;11.474;2023-06-10T00:41:16;11.90;99.90
3792;DHT22;1911;53.768;11.474;2023-06-10T00:43:41;11.80;99.90
3792;DHT22;1911;53.768;11.474;2023-06-10T00:46:07;11.80;99.90
3792;DHT22;1911;53.768;11.474;2023-06-10T00:48:34;11.80;99.90
3792;DHT22;1911;53.768;11.474;2023-06-10T00:51:00;11.80;99.90
3792;DHT22;1911;53.768;11.474;2023-06-10T00:53:26;11.70;99.90
3792;DHT22;1911;53.768;11.474;2023-06-10T00:55:53;11.70;99.90
3792;DHT22;1911;53.768;11.474;2023-06-10T01:05:40;11.50;99.90
3792;DHT22;1911;53.768;11.474;2023-06-10T01:10:43;11.40;99.90
3792;DHT22;1911;53.768;11.474;2023-06-10T01:13:13;11.30;99.90
3792;DHT22;1911;53.768;11.474;2023-06-10T01:15:40;11.20;99.90
3792;DHT22;1911;53.768;11.474;2023-06-10T01:18:08;11.10;99.90
3792;DHT22;1911;53.768;11.474;2023-06-10T01:20:36;11.00;99.90
3792;DHT22;1911;53.768;11.474;2023-06-10T01:23:06;11.00;99.90
3792;DHT22;1911;53.768;11.474;2023-06-10T01:25:33;10.90;99.90
3792;DHT22;1911;53.768;11.474;2023-06-10T01:28:07;10.90;99.90
3792;DHT22;1911;53.768;11.474;2023-06-10T01:30:46;10.90;99.90
3792;DHT22;1911;53.768;11.474;2023-06-10T01:33:22;10.80;99.90
3792;DHT22;1911;53.768;11.474;2023-06-10T01:35:50;10.90;99.90
3792;DHT22;1911;53.768;11.474;2023-06-10T01:38:18;10.80;99.90
3792;DHT22;1911;53.768;11.474;2023-06-10T01:40:46;10.80;99.90
3792;DHT22;1911;53.768;11.474;2023-06-10T01:43:11;10.80;99.90
3792;DHT22;1911;53.768;11.474;2023-06-10T01:45:37;10.80;99.90
3792;DHT22;1911;53.768;11.474;2023-06-10T01:48:03;10.80;99.90
3792;DHT22;1911;53.768;11.474;2023-06-10T01:50:28;10.70;99.90
3792;DHT22;1911;53.768;11.474;2023-06-10T01:52:54;10.70;99.90
3792;DHT22;1911;53.768;11.474;2023-06-10T01:55:20;10.70;99.90
3792;DHT22;1911;53.768;11.474;2023-06-10T01:57:45;10.70;99.90
3792;DHT22;1911;53.768;11.474;2023-06-10T02:00:11;10.70;99.90
3792;DHT22;1911;53.768;11.474;2023-06-10T02:02:37;10.70;99.90
3792;DHT22;1911;53.768;11.474;2023-06-10T02:05:03;10.60;99.90
3792;DHT22;1911;53.768;11.474;2023-06-10T02:07:29;10.60;99.90
3792;DHT22;1911;53.768;11.474;2023-06-10T02:09:54;10.60;99.90
3792;DHT22;1911;53.768;11.474;2023-06-10T02:12:20;10.60;99.90
3792;DHT22;1911;53.768;11.474;2023-06-10T02:14:46;10.60;99.90
3792;DHT22;1911;53.768;11.474;2023-06-10T02:17:11;10.50;99.90
3792;DHT22;1911;53.768;11.474;2023-06-10T02:19:38;10.50;99.90
3792;DHT22;1911;53.768;11.474;2023-06-10T02:22:10;10.50;99.90
3792;DHT22;1911;53.768;11.474;2023-06-10T02:24:36;10.50;99.90
3792;DHT22;1911;53.768;11.474;2023-06-10T02:27:04;10.50;99.90
3792;DHT22;1911;53.768;11.474;2023-06-10T02:29:33;10.40;99.90
3792;DHT22;1911;53.768;11.474;2023-06-10T02:31:59;10.50;99.90
3792;DHT22;1911;53.768;11.474;2023-06-10T02:34:24;10.40;99.90
3792;DHT22;1911;53.768;11.474;2023-06-10T02:36:50;10.40;99.90
3792;DHT22;1911;53.768;11.474;2023-06-10T02:39:16;10.40;99.90
3792;DHT22;1911;53.768;11.474;2023-06-10T02:41:42;10.40;99.90
3792;DHT22;1911;53.768;11.474;2023-06-10T02:44:07;10.40;99.90
3792;DHT22;1911;53.768;11.474;2023-06-10T02:46:36;10.40;99.90
3792;DHT22;1911;53.768;11.474;2023-06-10T02:49:01;10.40;99.90
3792;DHT22;1911;53.768;11.474;2023-06-10T02:51:27;10.40;99.90
3792;DHT22;1911;53.768;11.474;2023-06-10T02:53:53;10.40;99.90
3792;DHT22;1911;53.768;11.474;2023-06-10T02:56:19;10.40;99.90
3792;DHT22;1911;53.768;11.474;2023-06-10T02:58:45;10.40;99.90
3792;DHT22;1911;53.768;11.474;2023-06-10T03:01:12;10.40;99.90
3792;DHT22;1911;53.768;11.474;2023-06-10T03:03:37;10.40;99.90
3792;DHT22;1911;53.768;11.474;2023-06-10T03:06:10;10.40;99.90
3792;DHT22;1911;53.768;11.474;2023-06-10T03:08:36;10.40;99.90
3792;DHT22;1911;53.768;11.474;2023-06-10T03:11:03;10.30;99.90
3792;DHT22;1911;53.768;11.474;2023-06-10T03:13:28;10.40;99.90
3792;DHT22;1911;53.768;11.474;2023-06-10T03:15:54;10.40;99.90
3792;DHT22;1911;53.768;11.474;2023-06-10T03:18:20;10.50;99.90
3792;DHT22;1911;53.768;11.474;2023-06-10T03:20:46;10.50;99.90
3792;DHT22;1911;53.768;11.474;2023-06-10T03:23:11;10.50;99.90
3792;DHT22;1911;53.768;11.474;2023-06-10T03:25:37;10.50;99.90
3792;DHT22;1911;53.768;11.474;2023-06-10T03:28:02;10.50;99.90
3792;DHT22;1911;53.768;11.474;2023-06-10T03:30:28;10.60;99.90
3792;DHT22;1911;53.768;11.474;2023-06-10T03:32:54;10.60;99.90
3792;DHT22;1911;53.768;11.474;2023-06-10T03:35:20;10.60;99.90
3792;DHT22;1911;53.768;11.474;2023-06-10T03:37:46;10.70;99.90
3792;DHT22;1911;53.768;11.474;2023-06-10T03:40:11;10.80;99.90
3792;DHT22;1911;53.768;11.474;2023-06-10T03:42:37;10.90;99.90
3792;DHT22;1911;53.768;11.474;2023-06-10T03:45:03;10.90;99.90
3792;DHT22;1911;53.768;11.474;2023-06-10T03:47:36;10.90;99.90
3792;DHT22;1911;53.768;11.474;2023-06-10T03:50:03;11.00;99.90
3792;DHT22;1911;53.768;11.474;2023-06-10T03:52:29;11.10;99.90
3792;DHT22;1911;53.768;11.474;2023-06-10T03:54:55;11.10;99.90
3792;DHT22;1911;53.768;11.474;2023-06-10T03:57:21;11.20;99.90
3792;DHT22;1911;53.768;11.474;2023-06-10T03:59:46;11.20;99.90
3792;DHT22;1911;53.768;11.474;2023-06-10T04:02:12;11.30;99.90
3792;DHT22;1911;53.768;11.474;2023-06-10T04:04:38;11.30;99.90
3792;DHT22;1911;53.768;11.474;2023-06-10T04:07:04;11.40;99.90
3792;DHT22;1911;53.768;11.474;2023-06-10T04:09:32;11.50;99.90
3792;DHT22;1911;53.768;11.474;2023-06-10T04:11:57;11.60;99.90
3792;DHT22;1911;53.768;11.474;2023-06-10T04:14:23;11.60;99.90
3792;DHT22;1911;53.768;11.474;2023-06-10T04:16:49;11.80;99.90
3792;DHT22;1911;53.768;11.474;2023-06-10T04:19:15;11.80;99.90
3792;DHT22;1911;53.768;11.474;2023-06-10T04:21:42;11.90;99.90
3792;DHT22;1911;53.768;11.474;2023-06-10T04:24:07;12.00;99.90
3792;DHT22;1911;53.768;11.474;2023-06-10T04:26:35;12.10;99.90
3792;DHT22;1911;53.768;11.474;2023-06-10T04:29:01;12.20;99.90
3792;DHT22;1911;53.768;11.474;2023-06-10T04:31:26;12.20;99.90
3792;DHT22;1911;53.768;11.474;2023-06-10T04:33:53;12.30;99.90
3792;DHT22;1911;53.768;11.474;2023-06-10T04:36:19;12.40;99.90
3792;DHT22;1911;53.768;11.474;2023-06-10T04:38:44;12.50;99.90
3792;DHT22;1911;53.768;11.474;2023-06-10T04:41:13;12.60;99.90
3792;DHT22;1911;53.768;11.474;2023-06-10T04:43:38;12.70;99.90
3792;DHT22;1911;53.768;11.474;2023-06-10T04:46:04;12.90;99.90
3792;DHT22;1911;53.768;11.474;2023-06-10T04:48:30;12.90;99.90
3792;DHT22;1911;53.768;11.474;2023-06-10T04:50:55;13.00;99.90
3792;DHT22;1911;53.768;11.474;2023-06-10T04:53:22;13.10;99.90
3792;DHT22;1911;53.768;11.474;2023-06-10T04:55:48;13.30;99.90
3792;DHT22;1911;53.768;11.474;2023-06-10T04:58:14;13.30;99.90
3792;DHT22;1911;53.768;11.474;2023-06-10T05:00:40;13.30;99.90
3792;DHT22;1911;53.768;11.474;2023-06-10T05:03:05;13.40;99.90
3792;DHT22;1911;53.768;11.474;2023-06-10T05:05:31;13.50;99.90
3792;DHT22;1911;53.768;11.474;2023-06-10T05:07:57;13.60;99.90
3792;DHT22;1911;53.768;11.474;2023-06-10T05:10:22;13.80;99.90
3792;DHT22;1911;53.768;11.474;2023-06-10T05:12:48;13.80;99.90
3792;DHT22;1911;53.768;11.474;2023-06-10T05:15:16;13.90;99.90
3792;DHT22;1911;53.768;11.474;2023-06-10T05:17:42;14.10;99.90
3792;DHT22;1911;53.768;11.474;2023-06-10T05:20:08;14.20;99.90
3792;DHT22;1911;53.768;11.474;2023-06-10T05:22:33;14.50;99.90
3792;DHT22;1911;53.768;11.474;2023-06-10T05:24:59;14.80;99.90
3792;DHT22;1911;53.768;11.474;2023-06-10T05:27:25;15.40;99.90
3792;DHT22;1911;53.768;11.474;2023-06-10T05:29:51;15.90;99.90
3792;DHT22;1911;53.768;11.474;2023-06-10T05:32:17;17.80;99.90
3792;DHT22;1911;53.768;11.474;2023-06-10T05:34:45;19.90;1.00
3792;DHT22;1911;53.768;11.474;2023-06-10T05:37:12;20.80;99.90
3792;DHT22;1911;53.768;11.474;2023-06-10T05:39:39;22.10;1.00
3792;DHT22;1911;53.768;11.474;2023-06-10T05:42:08;24.00;99.90
3792;DHT22;1911;53.768;11.474;2023-06-10T05:44:34;23.50;99.90
3792;DHT22;1911;53.768;11.474;2023-06-10T05:46:59;24.80;79.40
3792;DHT22;1911;53.768;11.474;2023-06-10T05:49:25;25.70;1.00
3792;DHT22;1911;53.768;11.474;2023-06-10T05:51:51;27.00;1.00
3792;DHT22;1911;53.768;11.474;2023-06-10T05:54:18;26.20;1.00
3792;DHT22;1911;53.768;11.474;2023-06-10T05:56:44;25.30;1.00
3792;DHT22;1911;53.768;11.474;2023-06-10T05:59:09;26.10;1.00
3792;DHT22;1911;53.768;11.474;2023-06-10T06:01:35;24.30;1.00
3792;DHT22;1911;53.768;11.474;2023-06-10T06:04:01;25.40;1.00
3792;DHT22;1911;53.768;11.474;2023-06-10T06:06:26;25.50;1.00
3792;DHT22;1911;53.768;11.474;2023-06-10T06:08:52;26.50;1.00
3792;DHT22;1911;53.768;11.474;2023-06-10T06:11:17;26.00;1.00
3792;DHT22;1911;53.768;11.474;2023-06-10T06:13:43;25.50;1.00
3792;DHT22;1911;53.768;11.474;2023-06-10T06:16:08;25.70;1.00
3792;DHT22;1911;53.768;11.474;2023-06-10T06:18:34;25.20;1.00
3792;DHT22;1911;53.768;11.474;2023-06-10T06:21:00;25.70;1.00
3792;DHT22;1911;53.768;11.474;2023-06-10T06:23:25;27.20;1.00
3792;DHT22;1911;53.768;11.474;2023-06-10T06:25:51;27.40;1.00
3792;DHT22;1911;53.768;11.474;2023-06-10T06:28:17;27.20;1.00
3792;DHT22;1911;53.768;11.474;2023-06-10T06:30:44;27.90;1.00
3792;DHT22;1911;53.768;11.474;2023-06-10T06:33:10;27.90;1.00
3792;DHT22;1911;53.768;11.474;2023-06-10T06:35:35;27.80;1.00
3792;DHT22;1911;53.768;11.474;2023-06-10T06:38:01;28.30;1.00
3792;DHT22;1911;53.768;11.474;2023-06-10T06:40:27;28.20;1.00
3792;DHT22;1911;53.768;11.474;2023-06-10T06:42:52;27.70;1.00
3792;DHT22;1911;53.768;11.474;2023-06-10T06:45:18;27.40;1.00
3792;DHT22;1911;53.768;11.474;2023-06-10T06:47:43;28.10;1.00
3792;DHT22;1911;53.768;11.474;2023-06-10T06:50:09;27.60;1.00
3792;DHT22;1911;53.768;11.474;2023-06-10T06:52:36;28.70;1.00
3792;DHT22;1911;53.768;11.474;2023-06-10T06:55:04;27.70;1.00
3792;DHT22;1911;53.768;11.474;2023-06-10T06:57:29;28.10;1.00
3792;DHT22;1911;53.768;11.474;2023-06-10T06:59:55;29.10;1.00
3792;DHT22;1911;53.768;11.474;2023-06-10T07:02:21;28.60;1.00
3792;DHT22;1911;53.768;11.474;2023-06-10T07:04:46;28.30;1.00
3792;DHT22;1911;53.768;11.474;2023-06-10T07:07:14;28.90;1.00
3792;DHT22;1911;53.768;11.474;2023-06-10T07:09:39;28.60;1.00
3792;DHT22;1911;53.768;11.474;2023-06-10T07:12:05;28.60;1.00
3792;DHT22;1911;53.768;11.474;2023-06-10T07:14:31;28.90;1.00
3792;DHT22;1911;53.768;11.474;2023-06-10T07:16:57;29.20;1.00
3792;DHT22;1911;53.768;11.474;2023-06-10T07:19:22;29.40;1.00
3792;DHT22;1911;53.768;11.474;2023-06-10T07:21:48;29.10;1.00
3792;DHT22;1911;53.768;11.474;2023-06-10T07:24:13;28.80;1.00
3792;DHT22;1911;53.768;11.474;2023-06-10T07:26:39;29.30;1.00
3792;DHT22;1911;53.768;11.474;2023-06-10T07:29:04;29.40;1.00
3792;DHT22;1911;53.768;11.474;2023-06-10T07:31:30;29.70;1.00
3792;DHT22;1911;53.768;11.474;2023-06-10T07:33:56;30.20;1.00
3792;DHT22;1911;53.768;11.474;2023-06-10T07:36:21;30.60;1.00
3792;DHT22;1911;53.768;11.474;2023-06-10T07:38:48;30.60;1.00
3792;DHT22;1911;53.768;11.474;2023-06-10T07:41:13;29.20;1.00
3792;DHT22;1911;53.768;11.474;2023-06-10T07:43:39;29.00;1.00
3792;DHT22;1911;53.768;11.474;2023-06-10T07:46:05;30.00;1.00
3792;DHT22;1911;53.768;11.474;2023-06-10T07:48:31;29.50;1.00
3792;DHT22;1911;53.768;11.474;2023-06-10T07:50:57;29.60;1.00
3792;DHT22;1911;53.768;11.474;2023-06-10T07:53:22;30.10;1.00
3792;DHT22;1911;53.768;11.474;2023-06-10T07:55:48;29.90;1.00
3792;DHT22;1911;53.768;11.474;2023-06-10T07:58:13;30.30;1.00
3792;DHT22;1911;53.768;11.474;2023-06-10T08:00:39;30.90;1.00
3792;DHT22;1911;53.768;11.474;2023-06-10T08:03:04;30.60;1.00
3792;DHT22;1911;53.768;11.474;2023-06-10T08:05:30;30.70;1.00
3792;DHT22;1911;53.768;11.474;2023-06-10T08:07:56;31.10;1.00
3792;DHT22;1911;53.768;11.474;2023-06-10T08:10:21;31.80;1.00
3792;DHT22;1911;53.768;11.474;2023-06-10T08:12:47;31.70;1.00
3792;DHT22;1911;53.768;11.474;2023-06-10T08:15:12;30.40;1.00
3792;DHT22;1911;53.768;11.474;2023-06-10T08:17:38;31.00;1.00
3792;DHT22;1911;53.768;11.474;2023-06-10T08:20:05;31.50;1.00
3792;DHT22;1911;53.768;11.474;2023-06-10T08:22:31;31.30;1.00
3792;DHT22;1911;53.768;11.474;2023-06-10T08:24:57;31.30;1.00
3792;DHT22;1911;53.768;11.474;2023-06-10T08:27:22;31.10;1.00
3792;DHT22;1911;53.768;11.474;2023-06-10T08:29:48;31.10;1.00
3792;DHT22;1911;53.768;11.474;2023-06-10T08:32:13;31.20;1.00
3792;DHT22;1911;53.768;11.474;2023-06-10T08:34:39;31.50;1.00
3792;DHT22;1911;53.768;11.474;2023-06-10T08:37:05;31.00;1.00
3792;DHT22;1911;53.768;11.474;2023-06-10T08:39:30;30.40;1.00
3792;DHT22;1911;53.768;11.474;2023-06-10T08:42:11;30.60;1.00
3792;DHT22;1911;53.768;11.474;2023-06-10T08:44:40;30.60;1.00
3792;DHT22;1911;53.768;11.474;2023-06-10T08:47:16;30.60;1.00
3792;DHT22;1911;53.768;11.474;2023-06-10T08:49:44;30.30;1.00
3792;DHT22;1911;53.768;11.474;2023-06-10T08:52:14;30.00;1.00
3792;DHT22;1911;53.768;11.474;2023-06-10T08:54:52;29.70;1.00
3792;DHT22;1911;53.768;11.474;2023-06-10T08:57:20;29.80;1.00
3792;DHT22;1911;53.768;11.474;2023-06-10T08:59:47;29.80;1.00
3792;DHT22;1911;53.768;11.474;2023-06-10T09:02:14;29.80;1.00
3792;DHT22;1911;53.768;11.474;2023-06-10T09:04:42;29.40;1.00
3792;DHT22;1911;53.768;11.474;2023-06-10T09:07:08;29.40;1.00
3792;DHT22;1911;53.768;11.474;2023-06-10T09:09:35;29.40;1.00
3792;DHT22;1911;53.768;11.474;2023-06-10T09:12:00;28.90;1.00
3792;DHT22;1911;53.768;11.474;2023-06-10T09:14:26;28.90;1.00
3792;DHT22;1911;53.768;11.474;2023-06-10T09:16:52;27.70;1.00
3792;DHT22;1911;53.768;11.474;2023-06-10T09:19:22;28.00;1.00
3792;DHT22;1911;53.768;11.474;2023-06-10T09:21:48;28.10;1.00
3792;DHT22;1911;53.768;11.474;2023-06-10T09:24:14;28.20;1.00
3792;DHT22;1911;53.768;11.474;2023-06-10T09:26:40;28.20;1.00
3792;DHT22;1911;53.768;11.474;2023-06-10T09:29:06;27.80;1.00
3792;DHT22;1911;53.768;11.474;2023-06-10T09:31:35;27.70;1.00
3792;DHT22;1911;53.768;11.474;2023-06-10T09:34:13;27.50;1.00
3792;DHT22;1911;53.768;11.474;2023-06-10T09:36:40;26.80;1.00
3792;DHT22;1911;53.768;11.474;2023-06-10T09:39:17;26.90;1.00
3792;DHT22;1911;53.768;11.474;2023-06-10T09:41:44;26.90;1.00
3792;DHT22;1911;53.768;11.474;2023-06-10T09:44:18;26.90;1.00
3792;DHT22;1911;53.768;11.474;2023-06-10T09:46:49;27.20;1.00
3792;DHT22;1911;53.768;11.474;2023-06-10T09:49:18;27.50;1.00
3792;DHT22;1911;53.768;11.474;2023-06-10T09:51:51;27.30;1.00
3792;DHT22;1911;53.768;11.474;2023-06-10T09:54:18;27.30;1.00
3792;DHT22;1911;53.768;11.474;2023-06-10T09:56:50;27.30;1.00
3792;DHT22;1911;53.768;11.474;2023-06-10T09:59:27;27.60;1.00
3792;DHT22;1911;53.768;11.474;2023-06-10T10:01:56;27.20;1.00
3792;DHT22;1911;53.768;11.474;2023-06-10T10:04:26;27.40;1.00
3792;DHT22;1911;53.768;11.474;2023-06-10T10:06:52;27.20;1.00
3792;DHT22;1911;53.768;11.474;2023-06-10T10:09:17;27.20;1.00
3792;DHT22;1911;53.768;11.474;2023-06-10T10:11:44;27.30;1.00
3792;DHT22;1911;53.768;11.474;2023-06-10T10:14:10;27.10;1.00
3792;DHT22;1911;53.768;11.474;2023-06-10T10:16:37;27.10;1.00
3792;DHT22;1911;53.768;11.474;2023-06-10T10:19:08;27.20;1.00
3792;DHT22;1911;53.768;11.474;2023-06-10T10:21:48;27.30;1.00
3792;DHT22;1911;53.768;11.474;2023-06-10T10:24:21;27.30;1.00
3792;DHT22;1911;53.768;11.474;2023-06-10T10:26:48;27.20;1.00
3792;DHT22;1911;53.768;11.474;2023-06-10T10:29:24;27.10;1.00
3792;DHT22;1911;53.768;11.474;2023-06-10T10:31:51;27.40;1.00
3792;DHT22;1911;53.768;11.474;2023-06-10T10:34:25;27.10;1.00
3792;DHT22;1911;53.768;11.474;2023-06-10T10:36:54;27.60;1.00
3792;DHT22;1911;53.768;11.474;2023-06-10T10:39:20;27.80;1.00
3792;DHT22;1911;53.768;11.474;2023-06-10T10:41:47;27.70;1.00
3792;DHT22;1911;53.768;11.474;2023-06-10T10:44:13;27.70;1.00
3792;DHT22;1911;53.768;11.474;2023-06-10T10:46:52;27.70;1.00
3792;DHT22;1911;53.768;11.474;2023-06-10T10:49:20;27.70;1.00
3792;DHT22;1911;53.768;11.474;2023-06-10T10:51:57;27.60;1.00
3792;DHT22;1911;53.768;11.474;2023-06-10T10:54:35;27.40;1.00
3792;DHT22;1911;53.768;11.474;2023-06-10T10:57:21;26.60;1.00
3792;DHT22;1911;53.768;11.474;2023-06-10T10:59:52;26.90;1.00
3792;DHT22;1911;53.768;11.474;2023-06-10T11:02:34;26.50;1.00
3792;DHT22;1911;53.768;11.474;2023-06-10T11:05:02;27.00;1.00
3792;DHT22;1911;53.768;11.474;2023-06-10T11:07:31;27.50;1.00
3792;DHT22;1911;53.768;11.474;2023-06-10T11:10:11;27.70;1.00
3792;DHT22;1911;53.768;11.474;2023-06-10T11:15:12;27.30;1.00
3792;DHT22;1911;53.768;11.474;2023-06-10T11:23:32;27.70;1.00
3792;DHT22;1911;53.768;11.474;2023-06-10T11:31:28;27.50;1.00
3792;DHT22;1911;53.768;11.474;2023-06-10T11:33:58;27.50;1.00
3792;DHT22;1911;53.768;11.474;2023-06-10T11:36:26;27.60;1.00
3792;DHT22;1911;53.768;11.474;2023-06-10T11:39:00;28.20;1.00
3792;DHT22;1911;53.768;11.474;2023-06-10T11:41:26;28.50;1.00
3792;DHT22;1911;53.768;11.474;2023-06-10T11:43:53;28.10;1.00
3792;DHT22;1911;53.768;11.474;2023-06-10T11:46:21;27.40;1.00
3792;DHT22;1911;53.768;11.474;2023-06-10T11:48:54;27.80;1.00
3792;DHT22;1911;53.768;11.474;2023-06-10T11:51:20;27.90;1.00
3792;DHT22;1911;53.768;11.474;2023-06-10T11:53:47;27.70;1.00
3792;DHT22;1911;53.768;11.474;2023-06-10T11:56:19;27.80;1.00
3792;DHT22;1911;53.768;11.474;2023-06-10T11:58:45;27.90;1.00
3792;DHT22;1911;53.768;11.474;2023-06-10T12:01:10;27.80;1.00
3792;DHT22;1911;53.768;11.474;2023-06-10T12:03:37;28.00;1.00
3792;DHT22;1911;53.768;11.474;2023-06-10T12:06:05;28.00;1.00
3792;DHT22;1911;53.768;11.474;2023-06-10T12:08:31;27.70;1.00
3792;DHT22;1911;53.768;11.474;2023-06-10T12:10:57;27.70;1.00
3792;DHT22;1911;53.768;11.474;2023-06-10T12:13:27;27.40;1.00
3792;DHT22;1911;53.768;11.474;2023-06-10T12:15:53;27.20;1.00
3792;DHT22;1911;53.768;11.474;2023-06-10T12:18:24;27.30;1.00
3792;DHT22;1911;53.768;11.474;2023-06-10T12:20:51;27.80;1.00
3792;DHT22;1911;53.768;11.474;2023-06-10T12:23:17;27.90;1.00
3792;DHT22;1911;53.768;11.474;2023-06-10T12:25:51;27.90;1.00
3792;DHT22;1911;53.768;11.474;2023-06-10T12:28:26;27.70;1.00
3792;DHT22;1911;53.768;11.474;2023-06-10T12:31:06;27.70;1.00
3792;DHT22;1911;53.768;11.474;2023-06-10T12:33:33;27.80;1.00
3792;DHT22;1911;53.768;11.474;2023-06-10T12:35:58;27.50;1.00
3792;DHT22;1911;53.768;11.474;2023-06-10T12:38:25;27.60;1.00
3792;DHT22;1911;53.768;11.474;2023-06-10T12:40:53;27.40;1.00
3792;DHT22;1911;53.768;11.474;2023-06-10T12:43:25;27.30;1.00
3792;DHT22;1911;53.768;11.474;2023-06-10T12:45:51;27.30;1.00
3792;DHT22;1911;53.768;11.474;2023-06-10T12:48:24;27.30;1.00
3792;DHT22;1911;53.768;11.474;2023-06-10T12:50:53;27.30;1.00
3792;DHT22;1911;53.768;11.474;2023-06-10T12:53:20;27.30;1.00
3792;DHT22;1911;53.768;11.474;2023-06-10T12:55:46;27.30;1.00
3792;DHT22;1911;53.768;11.474;2023-06-10T12:58:12;27.30;1.00
3792;DHT22;1911;53.768;11.474;2023-06-10T13:00:39;27.30;1.00
3792;DHT22;1911;53.768;11.474;2023-06-10T13:03:05;27.00;1.00
3792;DHT22;1911;53.768;11.474;2023-06-10T13:05:31;26.70;1.00
3792;DHT22;1911;53.768;11.474;2023-06-10T13:07:58;26.90;1.00
3792;DHT22;1911;53.768;11.474;2023-06-10T13:10:24;26.70;1.00
3792;DHT22;1911;53.768;11.474;2023-06-10T13:12:50;26.80;1.00
3792;DHT22;1911;53.768;11.474;2023-06-10T13:15:16;26.90;1.00
3792;DHT22;1911;53.768;11.474;2023-06-10T13:17:43;26.80;1.00
3792;DHT22;1911;53.768;11.474;2023-06-10T13:20:09;26.70;1.00
3792;DHT22;1911;53.768;11.474;2023-06-10T13:22:35;26.50;1.00
3792;DHT22;1911;53.768;11.474;2023-06-10T13:25:05;26.60;1.00
3792;DHT22;1911;53.768;11.474;2023-06-10T13:27:32;26.90;1.00
3792;DHT22;1911;53.768;11.474;2023-06-10T13:29:58;26.70;1.00
3792;DHT22;1911;53.768;11.474;2023-06-10T13:32:23;26.60;1.00
3792;DHT22;1911;53.768;11.474;2023-06-10T13:34:49;26.60;1.00
3792;DHT22;1911;53.768;11.474;2023-06-10T13:37:16;26.60;1.00
3792;DHT22;1911;53.768;11.474;2023-06-10T13:39:45;26.50;1.00
3792;DHT22;1911;53.768;11.474;2023-06-10T13:42:13;26.50;1.00
3792;DHT22;1911;53.768;11.474;2023-06-10T13:44:39;26.50;1.00
3792;DHT22;1911;53.768;11.474;2023-06-10T13:47:05;26.50;1.00
3792;DHT22;1911;53.768;11.474;2023-06-10T13:49:31;26.40;1.00
3792;DHT22;1911;53.768;11.474;2023-06-10T13:51:56;26.30;1.00
3792;DHT22;1911;53.768;11.474;2023-06-10T13:54:22;26.30;1.00
3792;DHT22;1911;53.768;11.474;2023-06-10T13:56:48;26.40;1.00
3792;DHT22;1911;53.768;11.474;2023-06-10T13:59:14;26.30;1.00
3792;DHT22;1911;53.768;11.474;2023-06-10T14:01:39;26.30;1.00
3792;DHT22;1911;53.768;11.474;2023-06-10T14:04:06;26.20;1.00
3792;DHT22;1911;53.768;11.474;2023-06-10T14:06:32;26.10;1.00
3792;DHT22;1911;53.768;11.474;2023-06-10T14:08:59;26.20;1.00
3792;DHT22;1911;53.768;11.474;2023-06-10T14:11:24;26.10;1.00
3792;DHT22;1911;53.768;11.474;2023-06-10T14:13:50;26.10;1.00
3792;DHT22;1911;53.768;11.474;2023-06-10T14:16:15;26.10;1.00
3792;DHT22;1911;53.768;11.474;2023-06-10T14:18:41;26.00;1.00
3792;DHT22;1911;53.768;11.474;2023-06-10T14:21:06;26.00;1.00
3792;DHT22;1911;53.768;11.474;2023-06-10T14:23:32;26.00;1.00
3792;DHT22;1911;53.768;11.474;2023-06-10T14:25:58;25.90;1.00
3792;DHT22;1911;53.768;11.474;2023-06-10T14:28:24;25.80;1.00
3792;DHT22;1911;53.768;11.474;2023-06-10T14:30:51;25.80;1.00
3792;DHT22;1911;53.768;11.474;2023-06-10T14:33:17;25.80;1.00
3792;DHT22;1911;53.768;11.474;2023-06-10T14:35:43;25.70;1.00
3792;DHT22;1911;53.768;11.474;2023-06-10T14:38:09;25.80;1.00
3792;DHT22;1911;53.768;11.474;2023-06-10T14:40:34;25.70;1.00
3792;DHT22;1911;53.768;11.474;2023-06-10T14:43:00;25.70;1.00
3792;DHT22;1911;53.768;11.474;2023-06-10T14:45:27;25.60;1.00
3792;DHT22;1911;53.768;11.474;2023-06-10T14:47:52;25.60;1.00
3792;DHT22;1911;53.768;11.474;2023-06-10T14:50:18;25.70;1.00
3792;DHT22;1911;53.768;11.474;2023-06-10T14:52:43;25.80;1.00
3792;DHT22;1911;53.768;11.474;2023-06-10T14:55:09;25.80;1.00
3792;DHT22;1911;53.768;11.474;2023-06-10T14:57:35;25.70;1.00
3792;DHT22;1911;53.768;11.474;2023-06-10T15:00:01;25.70;1.00
3792;DHT22;1911;53.768;11.474;2023-06-10T15:02:27;25.70;1.00
3792;DHT22;1911;53.768;11.474;2023-06-10T15:04:52;25.70;1.00
3792;DHT22;1911;53.768;11.474;2023-06-10T15:07:18;25.70;1.00
3792;DHT22;1911;53.768;11.474;2023-06-10T15:09:43;25.60;1.00
3792;DHT22;1911;53.768;11.474;2023-06-10T15:12:09;25.60;1.00
3792;DHT22;1911;53.768;11.474;2023-06-10T15:14:36;25.60;1.00
3792;DHT22;1911;53.768;11.474;2023-06-10T15:17:02;25.50;1.00
3792;DHT22;1911;53.768;11.474;2023-06-10T15:19:27;25.60;1.00
3792;DHT22;1911;53.768;11.474;2023-06-10T15:21:53;25.40;1.00
3792;DHT22;1911;53.768;11.474;2023-06-10T15:24:19;25.40;1.00
3792;DHT22;1911;53.768;11.474;2023-06-10T15:26:44;25.40;1.00
3792;DHT22;1911;53.768;11.474;2023-06-10T15:29:10;25.50;1.00
3792;DHT22;1911;53.768;11.474;2023-06-10T15:31:36;25.30;1.00
3792;DHT22;1911;53.768;11.474;2023-06-10T15:34:02;25.20;1.00
3792;DHT22;1911;53.768;11.474;2023-06-10T15:36:28;25.30;1.00
3792;DHT22;1911;53.768;11.474;2023-06-10T15:38:54;25.20;1.00
3792;DHT22;1911;53.768;11.474;2023-06-10T15:41:20;25.30;1.00
3792;DHT22;1911;53.768;11.474;2023-06-10T15:43:46;25.30;1.00
3792;DHT22;1911;53.768;11.474;2023-06-10T15:46:11;25.30;1.00
3792;DHT22;1911;53.768;11.474;2023-06-10T15:48:37;25.20;1.00
3792;DHT22;1911;53.768;11.474;2023-06-10T15:51:03;25.20;1.00
3792;DHT22;1911;53.768;11.474;2023-06-10T15:53:28;25.30;1.00
3792;DHT22;1911;53.768;11.474;2023-06-10T15:55:54;25.30;1.00
3792;DHT22;1911;53.768;11.474;2023-06-10T15:58:20;25.20;1.00
3792;DHT22;1911;53.768;11.474;2023-06-10T16:00:45;25.20;1.00
3792;DHT22;1911;53.768;11.474;2023-06-10T16:03:11;25.20;1.00
3792;DHT22;1911;53.768;11.474;2023-06-10T16:05:37;25.10;1.00
3792;DHT22;1911;53.768;11.474;2023-06-10T16:08:02;25.00;1.00
3792;DHT22;1911;53.768;11.474;2023-06-10T16:10:28;24.90;1.00
3792;DHT22;1911;53.768;11.474;2023-06-10T16:12:53;24.90;1.00
3792;DHT22;1911;53.768;11.474;2023-06-10T16:15:19;24.80;1.00
3792;DHT22;1911;53.768;11.474;2023-06-10T16:17:45;24.90;1.00
3792;DHT22;1911;53.768;11.474;2023-06-10T16:20:12;25.00;1.00